Macon, Missouri
Current Conditions -  °F | °C
As of 8:55 AM on Thursday 30 Oct 2014 (Local Time) from KIRK Reporting Station
Overcast Overcast  
Wind Chill: 41°   Ceiling: 9500
Heat Index: 45°   Visibility: 10mi
Dew Point: 39°   Wind: 7mph
Humidity: 80%   Direction: 180°S
Pressure: 30.06"   Gusts: NA
Location:  39.74°N, 92.46°W
Report Text: KIRK 301355Z AUTO 18006KT 10SM FEW070 OVC095 07/04 A3006 RMK AO2 RAE06 SLP189 P0000 T00720039
Loading
Personal Weather Stations






























Interactive Weather Map
Tropical Storm Tracking
New forecast layout! Learn more

10-Day Weather Forecast

Advertisements
Track Severe Weather on mobile